• Join FlightAware (Why Join?)
  • Login
  • US Flag 
12:49PM EDT


 

Airport Tracker/Info


-or-


 

Live Flight TrackerFlight Track Log ✈ UAL4401 ✈ 29-Apr-2013 ✈ KIAH - KIAD

Flight Track Log - Related Links

Times and Time Zones

All times are in EDT time to prevent confusion due to time zone crossing. See the UAL4401 flight status page for this flight to view local times or setup timezone preferences in your user account.

Time Position Orientation Groundspeed Altitude Reporting Facility
EDT Latitude Longitude Course Direction KTS MPH feet Rate Location/Type
09:12PM 29.9231 -94.9244 97° East  Level FlightAware Approximate
09:13PM 29.9101 -94.7870 95° East  Level FlightAware Approximate
09:14PM 29.8981 -94.6494 97° East  Level FlightAware Approximate
09:15PM 29.8829 -94.5123 97° East  Level FlightAware Approximate
09:16PM 29.8676 -94.3752 97° East  Level FlightAware Approximate
09:17PM 29.8500 -94.2422 90° East  Level FlightAware Approximate
09:18PM 29.8500 -94.1040 90° East  Level FlightAware Approximate
09:19PM 29.8595 -93.9667 81° East  Level FlightAware Approximate
09:20PM 29.8713 -93.8296 82° East  Level FlightAware Approximate
09:21PM 29.8833 -93.6924 90° East  Level FlightAware Approximate
09:22PM 29.8946 -93.5550 82° East  Level FlightAware Approximate
09:23PM 29.9107 -93.4180 82° East  Level FlightAware Approximate
09:24PM 29.9172 -93.2802 78° East  Level FlightAware Approximate
09:25PM 29.9419 -93.1449 78° East  Level FlightAware Approximate
09:26PM 29.9577 -93.0079 84° East  Level FlightAware Approximate
09:27PM 29.9667 -92.8701 90° East  Level FlightAware Approximate
09:28PM 29.9716 -92.7322 81° East  Level FlightAware Approximate
09:29PM 29.9862 -92.5951 85° East  Level FlightAware Approximate
09:30PM 29.9965 -92.4572 85° East  Level FlightAware Approximate
09:31PM 30.0067 -92.3193 85° East  Level FlightAware Approximate
09:32PM 30.0168 -92.1814 85° East  Level FlightAware Approximate
09:33PM 30.0267 -92.0434 85° East  Level FlightAware Approximate
09:34PM 30.0364 -91.9055 85° East  Level FlightAware Approximate
09:35PM 30.0460 -91.7675 85° East  Level FlightAware Approximate
09:36PM 30.0555 -91.6294 85° East  Level FlightAware Approximate
09:37PM 30.0648 -91.4914 86° East  Level FlightAware Approximate
09:38PM 30.0740 -91.3533 86° East  Level FlightAware Approximate
09:39PM 30.0831 -91.2152 86° East  Level FlightAware Approximate
09:40PM 30.0919 -91.0770 86° East  Level FlightAware Approximate
09:41PM 30.1027 -90.9393 74° East  Level FlightAware Approximate
09:42PM 30.1360 -90.8062 74° East  Level FlightAware Approximate
09:43PM 30.1693 -90.6730 74° East  Level FlightAware Approximate
09:44PM 30.2026 -90.5398 74° East  Level FlightAware Approximate
09:45PM 30.2358 -90.4065 74° East  Level FlightAware Approximate
09:46PM 30.2689 -90.2731 74° East  Level FlightAware Approximate
09:47PM 30.3018 -90.1397 74° East  Level FlightAware Approximate
09:48PM 30.3346 -90.0061 74° East  Level FlightAware Approximate
09:49PM 30.3672 -89.8725 74° East  Level FlightAware Approximate
09:50PM 30.3997 -89.7388 74° East  Level FlightAware Approximate
09:51PM 30.4321 -89.6050 74° East  Level FlightAware Approximate
09:52PM 30.4633 -89.4707 75° East  Level FlightAware Approximate
09:53PM 30.4942 -89.3364 75° East  Level FlightAware Approximate
09:54PM 30.5250 -89.2019 75° East  Level FlightAware Approximate
09:55PM 30.5557 -89.0674 75° East  Level FlightAware Approximate
09:56PM 30.5863 -88.9328 75° East  Level FlightAware Approximate
09:57PM 30.6167 -88.7981 75° East  Level FlightAware Approximate
09:58PM 30.6469 -88.6633 75° East  Level FlightAware Approximate
09:59PM 30.6770 -88.5284 75° East  Level FlightAware Approximate
10:00PM 30.7070 -88.3935 75° East  Level FlightAware Approximate
10:01PM 30.7703 -88.2791 49° Northeast  Level FlightAware Approximate
10:02PM 30.8495 -88.1742 49° Northeast  Level FlightAware Approximate
10:03PM 30.9285 -88.0692 49° Northeast  Level FlightAware Approximate
10:04PM 31.0074 -87.9641 49° Northeast  Level FlightAware Approximate
10:05PM 31.0863 -87.8587 49° Northeast  Level FlightAware Approximate
10:06PM 31.1651 -87.7532 49° Northeast  Level FlightAware Approximate
10:07PM 31.2438 -87.6475 49° Northeast  Level FlightAware Approximate
10:08PM 31.3189 -87.5383 52° Northeast  Level FlightAware Approximate
10:09PM 31.3968 -87.4317 49° Northeast  Level FlightAware Approximate
10:10PM 31.4757 -87.3259 49° Northeast  Level FlightAware Approximate
10:11PM 31.5544 -87.2199 49° Northeast  Level FlightAware Approximate
10:12PM 31.6331 -87.1137 49° Northeast  Level FlightAware Approximate
10:13PM 31.7117 -87.0074 49° Northeast  Level FlightAware Approximate
10:14PM 31.7902 -86.9009 49° Northeast  Level FlightAware Approximate
10:15PM 31.8686 -86.7942 49° Northeast  Level FlightAware Approximate
10:16PM 31.9469 -86.6873 49° Northeast  Level FlightAware Approximate
10:17PM 32.0251 -86.5802 49° Northeast  Level FlightAware Approximate
10:18PM 32.1032 -86.4730 49° Northeast  Level FlightAware Approximate
10:19PM 32.1813 -86.3655 49° Northeast  Level FlightAware Approximate
10:20PM 32.2572 -86.2559 52° Northeast  Level FlightAware Approximate
10:21PM 32.3310 -86.1442 53° Northeast  Level FlightAware Approximate
10:22PM 32.4031 -86.0309 53° Northeast  Level FlightAware Approximate
10:23PM 32.4767 -85.9188 51° Northeast  Level FlightAware Approximate
10:24PM 32.5512 -85.8075 52° Northeast  Level FlightAware Approximate
10:25PM 32.6256 -85.6960 52° Northeast  Level FlightAware Approximate
10:26PM 32.7000 -85.5843 52° Northeast  Level FlightAware Approximate
10:27PM 32.7743 -85.4725 52° Northeast  Level FlightAware Approximate
10:28PM 32.8484 -85.3604 52° Northeast  Level FlightAware Approximate
10:29PM 32.9225 -85.2482 52° Northeast  Level FlightAware Approximate
10:30PM 32.9964 -85.1357 52° Northeast  Level FlightAware Approximate
10:31PM 33.0702 -85.0231 52° Northeast  Level FlightAware Approximate
10:32PM 33.1440 -84.9103 52° Northeast  Level FlightAware Approximate
10:33PM 33.2180 -84.7978 52° Northeast  Level FlightAware Approximate
10:34PM 33.2925 -84.6854 52° Northeast  Level FlightAware Approximate
10:35PM 33.3668 -84.5729 52° Northeast  Level FlightAware Approximate
10:36PM 33.4411 -84.4602 52° Northeast  Level FlightAware Approximate
10:37PM 33.5152 -84.3473 52° Northeast  Level FlightAware Approximate
10:38PM 33.5892 -84.2342 52° Northeast  Level FlightAware Approximate
10:39PM 33.6625 -84.1203 53° Northeast  Level FlightAware Approximate
10:40PM 33.7346 -84.0052 53° Northeast  Level FlightAware Approximate
10:41PM 33.8066 -83.8899 53° Northeast  Level FlightAware Approximate
10:42PM 33.8785 -83.7745 53° Northeast  Level FlightAware Approximate
10:43PM 33.9517 -83.6601 52° Northeast  Level FlightAware Approximate
10:44PM 34.0249 -83.5456 52° Northeast  Level FlightAware Approximate
10:45PM 34.0979 -83.4309 52° Northeast  Level FlightAware Approximate
10:46PM 34.1709 -83.3161 52° Northeast  Level FlightAware Approximate
10:47PM 34.2438 -83.2010 53° Northeast  Level FlightAware Approximate
10:48PM 34.3166 -83.0858 53° Northeast  Level FlightAware Approximate
10:49PM 34.3892 -82.9703 53° Northeast  Level FlightAware Approximate
10:50PM 34.4615 -82.8544 53° Northeast  Level FlightAware Approximate
10:51PM 34.5333 -82.7380 53° Northeast  Level FlightAware Approximate
10:52PM 34.6050 -82.6213 53° Northeast  Level FlightAware Approximate
10:53PM 34.6767 -82.5045 53° Northeast  Level FlightAware Approximate
10:54PM 34.7481 -82.3875 53° Northeast  Level FlightAware Approximate
10:55PM 34.8195 -82.2702 53° Northeast  Level FlightAware Approximate
10:56PM 34.8908 -82.1528 53° Northeast  Level FlightAware Approximate
10:57PM 34.9619 -82.0352 54° Northeast  Level FlightAware Approximate
10:58PM 35.0329 -81.9173 54° Northeast  Level FlightAware Approximate
10:59PM 35.0902 -81.7887 61° Northeast  Level FlightAware Approximate
11:00PM 35.1558 -81.6662 56° Northeast  Level FlightAware Approximate
11:01PM 35.2204 -81.5427 58° Northeast  Level FlightAware Approximate
11:02PM 35.2830 -81.4175 58° Northeast  Level FlightAware Approximate
11:03PM 35.3462 -81.2927 57° Northeast  Level FlightAware Approximate
11:04PM 35.4121 -81.1699 57° Northeast  Level FlightAware Approximate
11:05PM 35.4778 -81.0469 57° Northeast  Level FlightAware Approximate
11:06PM 35.5434 -80.9237 57° Northeast  Level FlightAware Approximate
11:07PM 35.6089 -80.8002 57° Northeast  Level FlightAware Approximate
11:08PM 35.6742 -80.6766 57° Northeast  Level FlightAware Approximate
11:09PM 35.7395 -80.5528 57° Northeast  Level FlightAware Approximate
11:10PM 35.8046 -80.4287 57° Northeast  Level FlightAware Approximate
11:11PM 35.8695 -80.3045 57° Northeast  Level FlightAware Approximate
11:12PM 35.9344 -80.1801 57° Northeast  Level FlightAware Approximate
11:13PM 35.9946 -80.0521 61° Northeast  Level FlightAware Approximate
11:14PM 36.0582 -79.9269 52° Northeast  Level FlightAware Approximate
11:15PM 36.1305 -79.8086 55° Northeast  Level FlightAware Approximate
11:16PM 36.1986 -79.6865 55° Northeast  Level FlightAware Approximate
11:17PM 36.2666 -79.5641 55° Northeast  Level FlightAware Approximate
11:18PM 36.3345 -79.4416 55° Northeast  Level FlightAware Approximate
11:19PM 36.3999 -79.3169 58° Northeast  Level FlightAware Approximate
11:20PM 36.4722 -79.2088 56° Northeast  Level FlightAware Approximate
11:21PM 36.5388 -79.0849 56° Northeast  Level FlightAware Approximate
11:22PM 36.6054 -78.9608 56° Northeast  Level FlightAware Approximate
11:23PM 36.6717 -78.8364 56° Northeast  Level FlightAware Approximate
11:24PM 36.7458 -78.6917 58° Northeast  Level FlightAware Approximate
11:25PM 36.8216 -78.5481 55° Northeast  Level FlightAware Approximate
11:26PM 36.9001 -78.4067 55° Northeast  Level FlightAware Approximate
11:27PM 36.9840 -78.2712 53° Northeast  Level FlightAware Approximate
11:28PM 37.0854 -78.1578 34° Northeast  Level FlightAware Approximate
11:29PM 37.2010 -78.0640 32° Northeast  Level FlightAware Approximate
11:30PM 37.3179 -77.9726 32° Northeast  Level FlightAware Approximate
11:31PM 37.4348 -77.8810 32° Northeast  Level FlightAware Approximate
11:32PM 37.5546 -77.7963 23° Northeast  Level FlightAware Approximate
11:33PM 37.6813 -77.7281 23° Northeast  Level FlightAware Approximate
11:34PM 37.8051 -77.6522 28° Northeast  Level FlightAware Approximate
11:35PM 37.9280 -77.5799 25° Northeast  Level FlightAware Approximate
11:36PM 38.0551 -77.5129 31° Northeast  Level FlightAware Approximate
11:37PM 38.1783 -77.4359 21° North  Level FlightAware Approximate
11:38PM 38.3025 -77.3654 21° North  Level FlightAware Approximate
11:39PM 38.4379 -77.3500 North  Level FlightAware Approximate
11:40PM 38.5756 -77.3500 North  Level FlightAware Approximate
11:41PM 38.7133 -77.3500 North  Level FlightAware Approximate
11:42PM 38.8511 -77.3500 North  Level FlightAware Approximate
11:43PM 38.9474 -77.4599 North  Level Estimated
11:44PM 38.9474 -77.4599 North  Level Estimated
11:45PM 38.9474 -77.4599 191° South  Level Estimated
11:46PM 38.9474 -77.4599 201° Southwest  Level Estimated